createdAt,value
2022-09-13T00:00:51.380Z,8.27
2022-09-13T00:03:54.077Z,7.28
2022-09-13T00:06:56.651Z,6.93
2022-09-13T00:09:59.861Z,7.85
2022-09-13T00:13:02.637Z,8.73
2022-09-13T00:16:05.446Z,8.55
2022-09-13T00:19:08.133Z,7.07
2022-09-13T00:22:11.762Z,7.93
2022-09-13T00:25:14.623Z,8.75
2022-09-13T00:28:17.302Z,7.55
2022-09-13T00:31:21.188Z,6.80
2022-09-13T00:34:23.870Z,7.70
2022-09-13T00:37:26.422Z,8.00
2022-09-13T00:40:30.655Z,8.38
2022-09-13T00:43:45.245Z,7.38
2022-09-13T00:46:50.168Z,7.47
2022-09-13T00:49:59.380Z,7.65
2022-09-13T00:53:08.361Z,7.20
2022-09-13T00:56:21.645Z,8.02
2022-09-13T00:59:31.179Z,9.05
2022-09-13T01:02:33.738Z,9.05
2022-09-13T01:05:41.914Z,9.35
2022-09-13T01:08:49.291Z,9.50
2022-09-13T01:12:23.845Z,11.05
2022-09-13T01:15:26.585Z,10.75
2022-09-13T01:18:29.218Z,14.73
2022-09-13T01:22:07.164Z,13.15
2022-09-13T01:25:29.437Z,15.60
2022-09-13T01:28:35.128Z,13.88
2022-09-13T01:31:46.027Z,14.18
2022-09-13T01:35:17.120Z,13.07
2022-09-13T01:38:51.160Z,11.90
2022-09-13T01:42:29.101Z,9.83
2022-09-13T01:45:51.858Z,12.05
2022-09-13T01:49:03.272Z,11.38
2022-09-13T01:52:21.765Z,11.55
2022-09-13T01:55:41.985Z,9.35
2022-09-13T01:58:59.947Z,11.00
2022-09-13T02:02:16.326Z,10.73
2022-09-13T02:05:33.341Z,11.85
2022-09-13T02:08:39.226Z,12.02
2022-09-13T02:11:45.519Z,11.13
2022-09-13T02:15:03.382Z,12.50
2022-09-13T02:18:20.908Z,9.43
2022-09-13T02:21:29.400Z,9.02
2022-09-13T02:24:39.272Z,9.50
2022-09-13T02:27:46.438Z,11.50
2022-09-13T02:30:53.413Z,10.10
2022-09-13T02:34:00.432Z,9.55
2022-09-13T02:37:05.766Z,9.10
2022-09-13T02:40:15.414Z,9.00
2022-09-13T02:43:52.208Z,9.15
2022-09-13T02:47:14.086Z,10.90
2022-09-13T02:50:32.139Z,9.48
2022-09-13T02:53:56.096Z,10.02
2022-09-13T02:57:17.303Z,9.82
2022-09-13T03:00:20.995Z,10.88
2022-09-13T03:03:24.473Z,10.43
2022-09-13T03:06:29.260Z,9.63
2022-09-13T03:09:32.790Z,8.85
2022-09-13T03:13:01.324Z,9.73
2022-09-13T03:16:12.259Z,8.95
2022-09-13T03:19:50.564Z,9.70
2022-09-13T03:23:11.076Z,10.05
2022-09-13T03:26:28.528Z,9.07
2022-09-13T03:29:45.859Z,8.95
2022-09-13T03:33:00.195Z,8.32
2022-09-13T03:36:14.372Z,9.57
2022-09-13T03:39:25.914Z,8.35
2022-09-13T03:42:31.593Z,10.30
2022-09-13T03:45:40.116Z,7.65
2022-09-13T03:48:44.070Z,10.05
2022-09-13T03:51:50.053Z,9.23
2022-09-13T03:54:54.336Z,10.02
2022-09-13T03:57:56.961Z,9.30
2022-09-13T04:01:00.673Z,9.88
2022-09-13T04:04:04.161Z,8.82
2022-09-13T04:07:06.709Z,9.27
2022-09-13T04:10:13.558Z,10.93
2022-09-13T04:13:17.287Z,9.52
2022-09-13T04:16:19.822Z,8.18
2022-09-13T04:19:22.878Z,10.20
2022-09-13T04:22:25.356Z,9.30
2022-09-13T04:25:27.993Z,9.40
2022-09-13T04:28:31.739Z,9.20
2022-09-13T04:31:34.503Z,8.60
2022-09-13T04:34:37.324Z,9.07
2022-09-13T04:37:40.996Z,8.63
2022-09-13T04:40:44.100Z,9.18
2022-09-13T04:43:50.894Z,8.57
2022-09-13T04:46:53.354Z,8.52
2022-09-13T04:49:55.808Z,9.00
2022-09-13T04:52:58.547Z,9.37
2022-09-13T04:56:02.704Z,8.52
2022-09-13T04:59:05.523Z,8.50
2022-09-13T05:02:08.092Z,9.32
2022-09-13T05:05:10.800Z,9.13
2022-09-13T05:08:14.763Z,7.03
2022-09-13T05:11:17.194Z,8.20
2022-09-13T05:14:19.796Z,7.93
2022-09-13T05:17:22.382Z,8.82
2022-09-13T05:20:24.866Z,9.32
2022-09-13T05:23:28.920Z,7.90
2022-09-13T05:26:31.747Z,9.40
2022-09-13T05:29:34.287Z,9.38
2022-09-13T05:32:36.717Z,8.15
2022-09-13T05:35:41.335Z,6.15
2022-09-13T05:38:44.305Z,5.63
2022-09-13T05:41:47.038Z,5.68
2022-09-13T05:44:50.221Z,5.90
2022-09-13T05:47:52.685Z,6.95
2022-09-13T05:50:58.207Z,8.35
2022-09-13T05:54:01.315Z,6.37
2022-09-13T05:57:04.721Z,5.68
2022-09-13T06:00:08.091Z,6.65
2022-09-13T06:03:15.505Z,7.05
2022-09-13T06:06:19.156Z,5.95
2022-09-13T06:09:24.957Z,7.60
2022-09-13T06:12:27.510Z,9.38
2022-09-13T06:15:30.215Z,6.25
2022-09-13T06:18:33.799Z,6.63
2022-09-13T06:21:36.334Z,9.00
2022-09-13T06:24:38.896Z,6.83
2022-09-13T06:27:41.994Z,5.90
2022-09-13T06:30:45.003Z,5.50
2022-09-13T06:33:48.820Z,4.65
2022-09-13T06:36:51.277Z,6.78
2022-09-13T06:39:54.050Z,7.17
2022-09-13T06:42:57.005Z,6.90
2022-09-13T06:46:04.931Z,6.60
2022-09-13T06:49:09.881Z,9.18
2022-09-13T06:52:12.468Z,6.60
2022-09-13T06:55:15.008Z,7.57
2022-09-13T06:58:17.576Z,8.90
2022-09-13T07:01:23.497Z,11.77
2022-09-13T07:04:31.611Z,8.70
2022-09-13T07:07:34.283Z,7.65
2022-09-13T07:10:36.860Z,6.70
2022-09-13T07:13:40.208Z,6.47
2022-09-13T07:16:42.825Z,6.00
2022-09-13T07:19:49.236Z,5.63
2022-09-13T07:22:51.755Z,5.75
2022-09-13T07:25:56.237Z,4.70
2022-09-13T07:29:01.285Z,6.20
2022-09-13T07:32:04.358Z,6.57
2022-09-13T07:35:08.187Z,7.95
2022-09-13T07:38:10.975Z,7.55
2022-09-13T07:41:20.827Z,9.60
2022-09-13T07:44:23.454Z,9.25
2022-09-13T07:47:46.344Z,8.88
2022-09-13T07:51:05.675Z,9.73
2022-09-13T07:54:14.334Z,7.72
2022-09-13T07:57:19.323Z,16.40
2022-09-13T08:00:22.626Z,10.70
2022-09-13T08:03:25.187Z,14.52
2022-09-13T08:06:31.209Z,12.38
2022-09-13T08:09:33.775Z,7.28
2022-09-13T08:12:36.530Z,7.30
2022-09-13T08:15:39.370Z,7.50
2022-09-13T08:18:46.846Z,12.48
2022-09-13T08:21:49.753Z,12.18
2022-09-13T08:24:53.556Z,14.40
2022-09-13T08:27:56.848Z,11.90
2022-09-13T08:31:11.089Z,15.63
2022-09-13T08:34:15.905Z,12.00
2022-09-13T08:37:18.635Z,11.07
2022-09-13T08:40:23.017Z,10.05
2022-09-13T08:43:25.581Z,10.37
2022-09-13T08:46:33.170Z,9.80
2022-09-13T08:49:46.173Z,7.45
2022-09-13T08:53:12.353Z,6.00
2022-09-13T08:56:24.803Z,8.77
2022-09-13T08:59:52.099Z,8.37
2022-09-13T09:03:12.075Z,6.22
2022-09-13T09:06:18.293Z,10.43
2022-09-13T09:09:22.498Z,9.85
2022-09-13T09:12:31.169Z,7.55
2022-09-13T09:15:40.932Z,6.10
2022-09-13T09:18:46.714Z,5.30
2022-09-13T09:21:51.872Z,7.75
2022-09-13T09:24:56.375Z,14.70
2022-09-13T09:28:01.539Z,9.25
2022-09-13T09:31:17.223Z,8.63
2022-09-13T09:34:22.627Z,11.32
2022-09-13T09:37:29.208Z,5.43
2022-09-13T09:40:34.699Z,7.32
2022-09-13T09:43:47.238Z,9.27
2022-09-13T09:46:59.782Z,7.30
2022-09-13T09:50:18.016Z,8.00
2022-09-13T09:53:36.587Z,10.60
2022-09-13T09:56:54.049Z,7.22
2022-09-13T10:00:12.733Z,12.18
2022-09-13T10:03:19.066Z,6.40
2022-09-13T10:06:28.442Z,5.15
2022-09-13T10:09:31.263Z,8.95
2022-09-13T10:12:37.704Z,6.90
2022-09-13T10:15:57.991Z,3.80
2022-09-13T10:19:26.108Z,5.53
2022-09-13T10:22:31.288Z,5.10
2022-09-13T10:25:37.235Z,6.00
2022-09-13T10:29:03.704Z,7.10
2022-09-13T10:32:09.897Z,8.45
2022-09-13T10:35:26.333Z,9.43
2022-09-13T10:38:42.975Z,4.82
2022-09-13T10:41:58.225Z,5.72
2022-09-13T10:45:29.362Z,7.45
2022-09-13T10:48:45.563Z,5.30
2022-09-13T10:51:48.781Z,7.07
2022-09-13T10:54:51.439Z,7.95
2022-09-13T10:58:13.875Z,9.52
2022-09-13T11:01:45.890Z,6.65
2022-09-13T11:05:28.132Z,5.68
2022-09-13T11:08:50.189Z,6.93
2022-09-13T11:12:11.330Z,6.20
2022-09-13T11:15:24.786Z,8.35
2022-09-13T11:18:50.011Z,5.88
2022-09-13T11:22:05.752Z,5.25
2022-09-13T11:25:24.270Z,4.70
2022-09-13T11:28:46.534Z,6.30
2022-09-13T11:31:58.450Z,4.65
2022-09-13T11:35:39.545Z,4.90
2022-09-13T11:38:42.257Z,4.50
2022-09-13T11:42:12.343Z,4.83
2022-09-13T11:45:29.568Z,6.07
2022-09-13T11:49:02.031Z,4.95
2022-09-13T11:52:50.679Z,3.83
2022-09-13T11:56:02.072Z,4.18
2022-09-13T11:59:21.304Z,4.77
2022-09-13T12:02:49.808Z,4.45
2022-09-13T12:05:58.014Z,4.70
2022-09-13T12:09:13.100Z,5.32
2022-09-13T12:12:15.986Z,6.18
2022-09-13T12:15:41.429Z,4.03
2022-09-13T12:18:51.894Z,6.03
2022-09-13T12:21:58.084Z,4.38
2022-09-13T12:25:06.095Z,5.13
2022-09-13T12:28:27.507Z,3.97
2022-09-13T12:31:31.769Z,4.67
2022-09-13T12:34:49.134Z,3.95
2022-09-13T12:38:03.196Z,3.47
2022-09-13T12:41:14.097Z,6.60
2022-09-13T12:44:38.007Z,5.82
2022-09-13T12:48:01.924Z,4.43
2022-09-13T12:51:33.266Z,5.28
2022-09-13T12:54:48.120Z,4.30
2022-09-13T12:58:10.947Z,6.43
2022-09-13T13:01:25.212Z,5.07
2022-09-13T13:04:34.501Z,5.40
2022-09-13T13:07:38.252Z,5.15
2022-09-13T13:10:42.580Z,4.28
2022-09-13T13:13:55.576Z,5.97
2022-09-13T13:17:36.120Z,3.80
2022-09-13T13:20:47.829Z,5.03
2022-09-13T13:24:17.061Z,3.70
2022-09-13T13:27:44.966Z,4.72
2022-09-13T13:30:53.385Z,4.55
2022-09-13T13:34:04.025Z,5.45
2022-09-13T13:37:10.061Z,4.23
2022-09-13T13:40:22.152Z,5.43
2022-09-13T13:43:32.729Z,5.45
2022-09-13T13:46:35.357Z,5.18
2022-09-13T13:49:40.904Z,4.65
2022-09-13T13:53:05.602Z,4.73
2022-09-13T13:56:19.975Z,4.80
2022-09-13T13:59:33.195Z,4.20
2022-09-13T14:02:46.521Z,4.40
2022-09-13T14:06:10.898Z,3.92
2022-09-13T14:09:33.371Z,5.17
2022-09-13T14:13:18.933Z,5.70
2022-09-13T14:16:23.800Z,4.50
2022-09-13T14:19:34.510Z,4.63
2022-09-13T14:22:37.658Z,5.00
2022-09-13T14:25:46.101Z,4.43
2022-09-13T14:28:49.246Z,5.57
2022-09-13T14:32:01.215Z,3.90
2022-09-13T14:35:08.634Z,6.38
2022-09-13T14:38:11.082Z,3.75
2022-09-13T14:41:16.725Z,2.63
2022-09-13T14:44:28.691Z,7.78
2022-09-13T14:47:39.733Z,3.10
2022-09-13T14:50:56.527Z,4.80
2022-09-13T14:54:07.758Z,5.28
2022-09-13T14:57:25.614Z,5.27
2022-09-13T15:00:28.927Z,5.50
2022-09-13T15:03:32.073Z,6.35
2022-09-13T15:06:39.170Z,4.88
2022-09-13T15:09:42.000Z,4.53
2022-09-13T15:12:51.052Z,4.87
2022-09-13T15:15:54.214Z,4.45
2022-09-13T15:19:36.270Z,4.50
2022-09-13T15:22:42.810Z,5.15
2022-09-13T15:25:54.505Z,4.35
2022-09-13T15:29:04.309Z,4.73
2022-09-13T15:32:21.422Z,6.00
2022-09-13T15:35:30.215Z,4.82
2022-09-13T15:38:33.286Z,4.43
2022-09-13T15:41:40.768Z,3.70
2022-09-13T15:44:43.620Z,13.17
2022-09-13T15:47:52.309Z,5.20
2022-09-13T15:51:11.955Z,8.82
2022-09-13T15:54:18.388Z,7.28
2022-09-13T15:57:26.043Z,9.65
2022-09-13T16:00:28.626Z,9.63
2022-09-13T16:03:31.805Z,9.80
2022-09-13T16:06:36.595Z,11.00
2022-09-13T16:09:39.909Z,10.93
2022-09-13T16:12:42.859Z,17.17
2022-09-13T16:15:45.870Z,17.70
2022-09-13T16:18:48.490Z,17.67
2022-09-13T16:21:51.110Z,9.30
2022-09-13T16:24:53.565Z,12.18
2022-09-13T16:27:56.045Z,14.32
2022-09-13T16:30:58.780Z,15.50
2022-09-13T16:34:01.285Z,12.63
2022-09-13T16:37:03.896Z,12.13
2022-09-13T16:40:08.885Z,10.40
2022-09-13T16:43:12.845Z,15.65
2022-09-13T16:46:16.106Z,18.67
2022-09-13T16:49:18.675Z,15.23
2022-09-13T16:52:21.253Z,11.60
2022-09-13T16:55:24.443Z,10.02
2022-09-13T16:58:27.340Z,10.20
2022-09-13T17:01:38.299Z,12.63
2022-09-13T17:04:41.204Z,11.63
2022-09-13T17:07:43.992Z,8.73
2022-09-13T17:10:47.062Z,14.30
2022-09-13T17:13:49.909Z,10.65
2022-09-13T17:16:54.986Z,11.60
2022-09-13T17:19:58.571Z,9.67
2022-09-13T17:23:01.306Z,11.02
2022-09-13T17:26:03.847Z,12.50
2022-09-13T17:29:06.383Z,12.02
2022-09-13T17:32:09.623Z,5.57
2022-09-13T17:35:12.519Z,9.40
2022-09-13T17:38:15.484Z,12.70
2022-09-13T17:41:19.585Z,11.38
2022-09-13T17:44:22.292Z,11.77
2022-09-13T17:47:25.453Z,10.13
2022-09-13T17:50:27.970Z,10.57
2022-09-13T17:53:31.169Z,9.55
2022-09-13T17:56:39.507Z,13.23
2022-09-13T17:59:42.051Z,10.25
2022-09-13T18:02:45.458Z,10.70
2022-09-13T18:05:48.135Z,12.07
2022-09-13T18:08:53.642Z,8.10
2022-09-13T18:11:56.407Z,6.25
2022-09-13T18:15:00.196Z,7.90
2022-09-13T18:18:03.823Z,8.48
2022-09-13T18:21:07.718Z,9.07
2022-09-13T18:24:10.730Z,9.20
2022-09-13T18:27:13.584Z,8.13
2022-09-13T18:30:16.941Z,9.73
2022-09-13T18:33:21.385Z,6.07
2022-09-13T18:36:25.513Z,7.77
2022-09-13T18:39:28.519Z,9.48
2022-09-13T18:42:33.343Z,6.82
2022-09-13T18:45:36.941Z,6.43
2022-09-13T18:48:46.348Z,5.25
2022-09-13T18:51:50.037Z,6.43
2022-09-13T18:54:52.823Z,7.40
2022-09-13T18:57:55.855Z,8.10
2022-09-13T19:01:09.576Z,8.00
2022-09-13T19:04:15.836Z,7.07
2022-09-13T19:07:18.760Z,6.70
2022-09-13T19:10:21.847Z,8.60
2022-09-13T19:13:24.676Z,6.60
2022-09-13T19:16:27.567Z,9.35
2022-09-13T19:19:34.392Z,5.68
2022-09-13T19:22:37.411Z,9.80
2022-09-13T19:25:40.668Z,6.22
2022-09-13T19:28:49.446Z,7.10
2022-09-13T19:31:53.036Z,5.88
2022-09-13T19:34:55.847Z,8.70
2022-09-13T19:37:58.743Z,7.27
2022-09-13T19:41:05.671Z,6.55
2022-09-13T19:44:10.746Z,9.50
2022-09-13T19:50:38.572Z,6.82
2022-09-13T19:53:56.533Z,7.17
2022-09-13T19:57:00.871Z,7.10
2022-09-13T20:00:04.652Z,5.65
2022-09-13T20:03:10.607Z,9.75
2022-09-13T20:06:14.500Z,5.90
2022-09-13T20:09:19.311Z,5.47
2022-09-13T20:12:24.328Z,5.80
2022-09-13T20:15:31.501Z,8.15
2022-09-13T20:18:34.382Z,8.27
2022-09-13T20:21:37.413Z,8.35
2022-09-13T20:24:40.432Z,8.10
2022-09-13T20:27:43.860Z,6.30
2022-09-13T20:30:55.035Z,6.30
2022-09-13T20:33:59.736Z,6.57
2022-09-13T20:37:02.616Z,7.20
2022-09-13T20:40:06.140Z,6.20
2022-09-13T20:43:08.958Z,4.75
2022-09-13T20:46:14.303Z,5.57
2022-09-13T20:49:17.287Z,5.30
2022-09-13T20:52:20.125Z,5.78
2022-09-13T20:55:22.683Z,5.73
2022-09-13T20:58:25.320Z,5.57
2022-09-13T21:01:29.702Z,6.82
2022-09-13T21:04:32.756Z,7.18
2022-09-13T21:07:54.234Z,5.63
2022-09-13T21:11:04.257Z,5.73
2022-09-13T21:14:11.518Z,5.82
2022-09-13T21:17:14.084Z,5.82
2022-09-13T21:20:16.759Z,6.82
2022-09-13T21:23:19.280Z,5.88
2022-09-13T21:26:24.146Z,6.10
2022-09-13T21:29:26.695Z,5.85
2022-09-13T21:32:29.276Z,4.13
2022-09-13T21:35:31.803Z,6.85
2022-09-13T21:38:35.967Z,5.88
2022-09-13T21:41:39.226Z,4.50
2022-09-13T21:44:41.776Z,6.13
2022-09-13T21:47:44.213Z,6.60
2022-09-13T21:50:46.736Z,6.07
2022-09-13T21:53:57.639Z,4.47
2022-09-13T21:57:00.895Z,5.67
2022-09-13T22:00:05.305Z,5.43
2022-09-13T22:03:15.580Z,6.43
2022-09-13T22:06:19.893Z,4.97
2022-09-13T22:09:26.958Z,5.45
2022-09-13T22:12:29.840Z,4.40
2022-09-13T22:15:34.731Z,6.20
2022-09-13T22:18:37.431Z,4.22
2022-09-13T22:21:42.934Z,5.28
2022-09-13T22:24:46.605Z,5.25
2022-09-13T22:27:49.357Z,4.57
2022-09-13T22:30:51.889Z,6.32
2022-09-13T22:33:56.565Z,6.38
2022-09-13T22:37:00.206Z,5.47
2022-09-13T22:40:06.520Z,5.18
2022-09-13T22:43:10.039Z,5.23
2022-09-13T22:46:21.230Z,4.95
2022-09-13T22:49:23.762Z,4.40
2022-09-13T22:52:26.379Z,5.03
2022-09-13T22:55:29.221Z,5.72
2022-09-13T22:58:32.218Z,4.77
2022-09-13T23:01:35.671Z,5.38
2022-09-13T23:04:38.828Z,4.57
2022-09-13T23:07:41.603Z,4.65
2022-09-13T23:10:44.376Z,4.97
2022-09-13T23:13:48.498Z,4.70
2022-09-13T23:16:51.918Z,5.90
2022-09-13T23:19:54.460Z,3.63
2022-09-13T23:22:56.933Z,6.47
2022-09-13T23:26:09.089Z,4.50
2022-09-13T23:29:17.371Z,4.60
2022-09-13T23:32:19.963Z,4.40
2022-09-13T23:35:22.493Z,3.78
2022-09-13T23:38:25.405Z,4.53
2022-09-13T23:41:29.042Z,6.03
2022-09-13T23:44:32.758Z,5.23
2022-09-13T23:47:35.303Z,4.22
2022-09-13T23:50:38.046Z,4.40
2022-09-13T23:53:41.341Z,4.70
2022-09-13T23:56:44.194Z,3.92
2022-09-13T23:59:46.646Z,5.23
